createdAt,value
2023-04-07T00:01:30.253Z,33.63
2023-04-07T00:03:58.810Z,33.10
2023-04-07T00:06:27.477Z,33.23
2023-04-07T00:08:55.745Z,32.17
2023-04-07T00:11:23.611Z,32.52
2023-04-07T00:13:53.342Z,31.62
2023-04-07T00:16:21.767Z,31.71
2023-04-07T00:18:56.458Z,32.10
2023-04-07T00:21:27.340Z,32.48
2023-04-07T00:23:55.746Z,33.03
2023-04-07T00:26:25.473Z,32.47
2023-04-07T00:28:54.897Z,32.52
2023-04-07T00:31:22.918Z,32.51
2023-04-07T00:33:51.276Z,32.37
2023-04-07T00:36:26.006Z,33.00
2023-04-07T00:38:54.297Z,32.03
2023-04-07T00:41:22.361Z,32.07
2023-04-07T00:43:51.407Z,31.53
2023-04-07T00:46:23.948Z,31.29
2023-04-07T00:48:52.213Z,30.95
2023-04-07T00:51:22.348Z,32.56
2023-04-07T00:53:50.721Z,31.71
2023-04-07T00:56:18.760Z,31.25
2023-04-07T00:58:46.711Z,30.17
2023-04-07T01:01:20.288Z,30.56
2023-04-07T01:03:57.932Z,30.97
2023-04-07T01:06:32.697Z,31.15
2023-04-07T01:09:06.201Z,30.44
2023-04-07T01:11:42.855Z,31.55
2023-04-07T01:14:20.009Z,31.46
2023-04-07T01:16:58.410Z,30.48
2023-04-07T01:19:35.349Z,31.03
2023-04-07T01:22:08.906Z,30.78
2023-04-07T01:24:54.685Z,30.43
2023-04-07T01:27:39.467Z,30.66
2023-04-07T01:30:12.855Z,31.19
2023-04-07T01:32:42.848Z,30.85
2023-04-07T01:35:14.604Z,31.71
2023-04-07T01:37:46.611Z,31.85
2023-04-07T01:40:16.113Z,32.00
2023-04-07T01:42:48.264Z,32.12
2023-04-07T01:45:19.414Z,32.18
2023-04-07T01:47:48.620Z,31.21
2023-04-07T01:50:17.460Z,31.20
2023-04-07T01:52:55.245Z,30.64
2023-04-07T01:55:24.365Z,31.09
2023-04-07T01:58:06.612Z,31.33
2023-04-07T02:00:37.660Z,30.93
2023-04-07T02:03:21.194Z,32.02
2023-04-07T02:05:53.548Z,31.30
2023-04-07T02:08:27.138Z,31.82
2023-04-07T02:10:58.456Z,31.27
2023-04-07T02:13:33.990Z,32.23
2023-04-07T02:16:03.597Z,32.56
2023-04-07T02:18:33.648Z,32.26
2023-04-07T02:21:03.373Z,32.57
2023-04-07T02:23:36.484Z,32.28
2023-04-07T02:26:06.653Z,32.80
2023-04-07T02:28:50.406Z,32.60
2023-04-07T02:31:22.720Z,31.61
2023-04-07T02:33:50.838Z,31.43
2023-04-07T02:36:18.786Z,31.85
2023-04-07T02:38:46.824Z,31.47
2023-04-07T02:41:14.864Z,30.39
2023-04-07T02:43:42.942Z,31.06
2023-04-07T02:46:10.909Z,30.83
2023-04-07T02:48:40.327Z,30.85
2023-04-07T02:51:10.966Z,31.21
2023-04-07T02:53:38.852Z,31.47
2023-04-07T02:56:07.650Z,31.16
2023-04-07T02:58:35.895Z,31.64
2023-04-07T03:01:03.980Z,31.25
2023-04-07T03:03:33.841Z,32.91
2023-04-07T03:06:18.101Z,31.17
2023-04-07T03:09:06.684Z,32.13
2023-04-07T03:11:34.824Z,32.31
2023-04-07T03:14:02.819Z,31.54
2023-04-07T03:16:32.962Z,31.22
2023-04-07T03:19:06.537Z,32.06
2023-04-07T03:21:40.692Z,32.35
2023-04-07T03:24:10.056Z,32.74
2023-04-07T03:26:38.338Z,32.84
2023-04-07T03:29:10.267Z,31.81
2023-04-07T03:31:40.627Z,32.16
2023-04-07T03:34:08.676Z,32.10
2023-04-07T03:36:36.531Z,32.78
2023-04-07T03:39:07.987Z,32.48
2023-04-07T03:41:36.072Z,33.41
2023-04-07T03:44:04.365Z,32.54
2023-04-07T03:46:33.765Z,33.25
2023-04-07T03:49:02.192Z,32.84
2023-04-07T03:51:33.044Z,32.95
2023-04-07T03:54:02.803Z,33.00
2023-04-07T03:56:40.980Z,33.13
2023-04-07T03:59:09.493Z,33.05
2023-04-07T04:01:44.422Z,32.71
2023-04-07T04:04:16.280Z,34.17
2023-04-07T04:06:44.617Z,33.82
2023-04-07T04:09:32.933Z,33.77
2023-04-07T04:12:02.572Z,33.81
2023-04-07T04:14:32.493Z,33.93
2023-04-07T04:17:05.543Z,33.58
2023-04-07T04:19:46.681Z,34.64
2023-04-07T04:22:44.767Z,34.45
2023-04-07T04:25:16.291Z,33.80
2023-04-07T04:27:49.987Z,35.30
2023-04-07T04:30:27.096Z,35.07
2023-04-07T04:32:58.698Z,35.38
2023-04-07T04:35:37.142Z,34.16
2023-04-07T04:38:09.728Z,34.74
2023-04-07T04:40:40.660Z,34.60
2023-04-07T04:43:10.672Z,34.64
2023-04-07T04:45:41.100Z,35.92
2023-04-07T04:48:12.137Z,35.92
2023-04-07T04:50:40.306Z,34.91
2023-04-07T04:53:12.386Z,34.22
2023-04-07T04:55:52.246Z,34.02
2023-04-07T04:58:28.503Z,34.40
2023-04-07T05:00:59.614Z,33.63
2023-04-07T05:03:47.957Z,32.59
2023-04-07T05:06:24.138Z,33.59
2023-04-07T05:08:53.881Z,34.66
2023-04-07T05:11:26.134Z,35.77
2023-04-07T05:13:58.180Z,35.24
2023-04-07T05:16:26.372Z,33.91
2023-04-07T05:18:54.637Z,33.76
2023-04-07T05:21:23.231Z,33.83
2023-04-07T05:23:57.865Z,33.31
2023-04-07T05:26:26.132Z,34.21
2023-04-07T05:28:54.831Z,34.47
2023-04-07T05:31:26.930Z,34.00
2023-04-07T05:33:57.946Z,32.26
2023-04-07T05:36:29.954Z,33.01
2023-04-07T05:38:58.754Z,33.22
2023-04-07T05:41:28.083Z,33.96
2023-04-07T05:43:56.516Z,33.62
2023-04-07T05:46:25.940Z,33.79
2023-04-07T05:48:59.162Z,33.41
2023-04-07T05:51:31.508Z,34.14
2023-04-07T05:54:03.999Z,34.77
2023-04-07T05:56:32.685Z,33.86
2023-04-07T05:59:01.917Z,33.45
2023-04-07T06:01:31.438Z,33.30
2023-04-07T06:04:00.718Z,34.44
2023-04-07T06:06:31.414Z,32.94
2023-04-07T06:08:59.734Z,32.44
2023-04-07T06:11:28.296Z,33.87
2023-04-07T06:13:56.336Z,32.18
2023-04-07T06:16:25.188Z,31.77
2023-04-07T06:18:54.745Z,33.53
2023-04-07T06:21:22.699Z,32.64
2023-04-07T06:23:51.087Z,33.48
2023-04-07T06:26:19.314Z,34.07
2023-04-07T06:28:47.181Z,33.76
2023-04-07T06:31:16.653Z,33.12
2023-04-07T06:33:44.703Z,32.87
2023-04-07T06:36:16.537Z,33.54
2023-04-07T06:38:44.570Z,32.14
2023-04-07T06:41:19.626Z,32.98
2023-04-07T06:43:49.291Z,32.73
2023-04-07T06:46:17.471Z,31.78
2023-04-07T06:48:45.622Z,32.35
2023-04-07T06:51:13.480Z,31.05
2023-04-07T06:53:44.222Z,30.36
2023-04-07T06:56:13.113Z,30.32
2023-04-07T06:58:41.159Z,30.88
2023-04-07T07:01:08.982Z,31.57
2023-04-07T07:03:39.829Z,31.07
2023-04-07T07:06:08.043Z,30.77
2023-04-07T07:08:36.061Z,30.75
2023-04-07T07:11:05.642Z,30.68
2023-04-07T07:13:33.472Z,28.48
2023-04-07T07:16:01.524Z,30.26
2023-04-07T07:18:31.562Z,29.64
2023-04-07T07:20:59.723Z,29.63
2023-04-07T07:23:27.610Z,29.67
2023-04-07T07:25:59.573Z,28.28
2023-04-07T07:28:29.254Z,29.01
2023-04-07T07:30:57.370Z,28.56
2023-04-07T07:33:25.280Z,29.76
2023-04-07T07:35:53.566Z,28.68
2023-04-07T07:38:21.762Z,27.27
2023-04-07T07:40:50.205Z,28.87
2023-04-07T07:43:19.013Z,26.97
2023-04-07T07:45:48.402Z,28.08
2023-04-07T07:48:16.490Z,28.19
2023-04-07T07:50:44.672Z,27.77
2023-04-07T07:53:12.463Z,28.35
2023-04-07T07:55:40.251Z,27.83
2023-04-07T07:58:08.344Z,27.71
2023-04-07T08:00:36.275Z,28.55
2023-04-07T08:03:05.933Z,27.51
2023-04-07T08:05:33.880Z,27.31
2023-04-07T08:08:03.003Z,27.06
2023-04-07T08:10:31.050Z,27.80
2023-04-07T08:12:58.806Z,27.49
2023-04-07T08:15:26.758Z,28.06
2023-04-07T08:17:56.060Z,27.59
2023-04-07T08:20:25.644Z,26.53
2023-04-07T08:22:53.716Z,26.49
2023-04-07T08:25:22.035Z,25.79
2023-04-07T08:27:55.122Z,25.39
2023-04-07T08:30:23.425Z,25.05
2023-04-07T08:32:51.477Z,27.06
2023-04-07T08:35:19.408Z,26.39
2023-04-07T08:37:49.536Z,26.38
2023-04-07T08:40:18.437Z,24.78
2023-04-07T08:42:48.958Z,24.44
2023-04-07T08:45:18.414Z,24.87
2023-04-07T08:47:48.302Z,26.35
2023-04-07T08:50:18.705Z,26.29
2023-04-07T08:52:51.343Z,26.29
2023-04-07T08:55:19.419Z,25.91
2023-04-07T08:57:47.803Z,24.84
2023-04-07T09:00:17.023Z,25.10
2023-04-07T09:02:46.422Z,25.61
2023-04-07T09:05:15.508Z,26.32
2023-04-07T09:07:44.292Z,25.82
2023-04-07T09:10:13.707Z,25.85
2023-04-07T09:12:42.404Z,25.85
2023-04-07T09:15:10.777Z,25.42
2023-04-07T09:17:38.913Z,24.57
2023-04-07T09:20:07.901Z,25.50
2023-04-07T09:22:37.502Z,25.27
2023-04-07T09:25:15.788Z,24.25
2023-04-07T09:27:55.924Z,25.09
2023-04-07T09:30:24.934Z,25.01
2023-04-07T09:32:53.015Z,25.21
2023-04-07T09:35:23.438Z,23.67
2023-04-07T09:38:05.399Z,24.27
2023-04-07T09:40:35.060Z,25.42
2023-04-07T09:43:04.328Z,24.17
2023-04-07T09:45:36.173Z,22.50
2023-04-07T09:48:08.804Z,22.86
2023-04-07T09:50:38.477Z,23.34
2023-04-07T09:53:07.143Z,22.85
2023-04-07T09:55:36.856Z,22.60
2023-04-07T09:58:06.389Z,22.51
2023-04-07T10:00:34.865Z,23.78
2023-04-07T10:03:03.581Z,23.14
2023-04-07T10:05:32.737Z,22.54
2023-04-07T10:08:02.151Z,22.88
2023-04-07T10:10:31.939Z,22.17
2023-04-07T10:13:01.502Z,22.63
2023-04-07T10:15:29.409Z,23.39
2023-04-07T10:17:57.898Z,23.03
2023-04-07T10:20:26.858Z,23.52
2023-04-07T10:23:02.458Z,22.81
2023-04-07T10:25:31.478Z,21.31
2023-04-07T10:28:06.709Z,23.67
2023-04-07T10:30:35.671Z,22.05
2023-04-07T10:33:03.638Z,21.55
2023-04-07T10:36:05.894Z,21.45
2023-04-07T10:38:33.943Z,22.98
2023-04-07T10:41:01.879Z,23.20
2023-04-07T10:43:41.853Z,22.92
2023-04-07T10:46:09.816Z,22.29
2023-04-07T10:48:37.724Z,23.87
2023-04-07T10:51:18.872Z,23.13
2023-04-07T10:54:22.307Z,21.92
2023-04-07T10:57:13.358Z,22.48
2023-04-07T11:00:04.351Z,21.13
2023-04-07T11:02:34.028Z,22.64
2023-04-07T11:05:02.811Z,20.33
2023-04-07T11:07:49.875Z,21.13
2023-04-07T11:10:19.428Z,21.14
2023-04-07T11:13:03.877Z,22.50
2023-04-07T11:15:34.072Z,21.44
2023-04-07T11:18:15.923Z,21.50
2023-04-07T11:20:46.301Z,22.61
2023-04-07T11:23:14.922Z,21.62
2023-04-07T11:25:45.450Z,21.55
2023-04-07T11:28:14.559Z,22.23
2023-04-07T11:30:52.857Z,20.42
2023-04-07T11:33:22.555Z,20.43
2023-04-07T11:35:56.651Z,19.81
2023-04-07T11:38:26.089Z,20.92
2023-04-07T11:40:54.601Z,20.66
2023-04-07T11:43:24.039Z,21.26
2023-04-07T11:46:13.161Z,20.93
2023-04-07T11:48:42.992Z,20.38
2023-04-07T11:51:17.896Z,21.22
2023-04-07T11:53:46.148Z,21.08
2023-04-07T11:56:18.543Z,20.50
2023-04-07T11:58:49.827Z,20.69
2023-04-07T12:01:19.183Z,21.24
2023-04-07T12:03:58.902Z,19.90
2023-04-07T12:06:30.941Z,20.20
2023-04-07T12:08:58.984Z,21.47
2023-04-07T12:11:27.118Z,21.68
2023-04-07T12:13:55.195Z,21.38
2023-04-07T12:16:24.749Z,20.99
2023-04-07T12:18:53.345Z,21.41
2023-04-07T12:21:21.420Z,21.29
2023-04-07T12:23:50.338Z,21.15
2023-04-07T12:26:19.027Z,22.41
2023-04-07T12:28:48.499Z,21.40
2023-04-07T12:31:16.347Z,22.05
2023-04-07T12:33:45.743Z,21.49
2023-04-07T12:36:14.035Z,20.04
2023-04-07T12:38:42.490Z,18.76
2023-04-07T12:41:10.443Z,19.99
2023-04-07T12:43:38.358Z,19.12
2023-04-07T12:46:06.386Z,20.18
2023-04-07T12:48:34.430Z,19.79
2023-04-07T12:51:03.914Z,19.27
2023-04-07T12:53:32.513Z,18.97
2023-04-07T12:56:00.288Z,19.66
2023-04-07T12:58:28.179Z,20.04
2023-04-07T13:00:56.799Z,20.70
2023-04-07T13:03:25.065Z,20.68
2023-04-07T13:05:54.965Z,20.06
2023-04-07T13:08:24.134Z,20.89
2023-04-07T13:10:51.853Z,20.45
2023-04-07T13:13:23.874Z,20.37
2023-04-07T13:15:54.650Z,20.86
2023-04-07T13:18:23.428Z,19.81
2023-04-07T13:21:05.494Z,20.23
2023-04-07T13:23:43.877Z,20.19
2023-04-07T13:26:12.155Z,20.11
2023-04-07T13:28:39.985Z,20.09
2023-04-07T13:31:07.847Z,20.19
2023-04-07T13:33:37.663Z,19.66
2023-04-07T13:36:05.859Z,19.50
2023-04-07T13:38:33.852Z,19.15
2023-04-07T13:41:03.937Z,18.95
2023-04-07T13:43:31.832Z,18.94
2023-04-07T13:45:59.711Z,18.36
2023-04-07T13:48:27.638Z,19.10
2023-04-07T13:50:55.548Z,19.48
2023-04-07T13:53:23.603Z,20.47
2023-04-07T13:55:51.349Z,20.01
2023-04-07T13:58:20.513Z,19.79
2023-04-07T14:00:48.351Z,19.43
2023-04-07T14:03:16.468Z,20.53
2023-04-07T14:05:44.306Z,20.18
2023-04-07T14:08:12.132Z,19.21
2023-04-07T14:10:40.574Z,20.08
2023-04-07T14:13:08.391Z,19.84
2023-04-07T14:15:37.586Z,20.11
2023-04-07T14:18:06.334Z,20.85
2023-04-07T14:20:34.397Z,19.90
2023-04-07T14:23:02.558Z,21.19
2023-04-07T14:25:30.388Z,20.82
2023-04-07T14:27:58.547Z,20.01
2023-04-07T14:30:26.924Z,21.05
2023-04-07T14:32:58.512Z,21.16
2023-04-07T14:35:26.657Z,20.71
2023-04-07T14:37:55.589Z,19.92
2023-04-07T14:40:23.407Z,19.33
2023-04-07T14:43:06.503Z,20.17
2023-04-07T14:45:36.149Z,20.06
2023-04-07T14:48:16.582Z,19.51
2023-04-07T14:50:46.119Z,20.19
2023-04-07T14:53:14.662Z,19.06
2023-04-07T14:55:42.751Z,19.05
2023-04-07T14:58:10.651Z,18.01
2023-04-07T15:00:38.472Z,19.14
2023-04-07T15:03:08.009Z,19.78
2023-04-07T15:05:36.069Z,19.75
2023-04-07T15:08:03.886Z,19.92
2023-04-07T15:10:35.416Z,19.88
2023-04-07T15:13:03.620Z,19.33
2023-04-07T15:15:31.525Z,20.36
2023-04-07T15:17:59.980Z,19.79
2023-04-07T15:20:29.364Z,20.46
2023-04-07T15:22:57.731Z,19.18
2023-04-07T15:25:25.579Z,17.49
2023-04-07T15:27:53.493Z,16.89
2023-04-07T15:30:21.461Z,16.21
2023-04-07T15:32:59.056Z,15.97
2023-04-07T15:35:26.970Z,14.82
2023-04-07T15:37:56.414Z,15.98
2023-04-07T15:40:24.605Z,15.90
2023-04-07T15:42:52.405Z,14.31
2023-04-07T15:45:20.349Z,13.78
2023-04-07T15:47:48.153Z,12.66
2023-04-07T15:50:16.033Z,14.08
2023-04-07T15:52:43.832Z,14.63
2023-04-07T15:55:13.228Z,16.17
2023-04-07T15:57:41.272Z,15.07
2023-04-07T16:00:10.335Z,16.05
2023-04-07T16:02:38.608Z,15.59
2023-04-07T16:05:08.039Z,14.50
2023-04-07T16:07:36.409Z,13.96
2023-04-07T16:10:08.031Z,12.97
2023-04-07T16:12:37.883Z,12.46
2023-04-07T16:15:06.799Z,13.86
2023-04-07T16:17:34.624Z,13.58
2023-04-07T16:20:03.278Z,13.19
2023-04-07T16:22:31.162Z,13.01
2023-04-07T16:24:59.149Z,12.33
2023-04-07T16:27:27.101Z,13.84
2023-04-07T16:29:56.952Z,13.33
2023-04-07T16:32:24.880Z,13.21
2023-04-07T16:34:52.739Z,12.84
2023-04-07T16:37:20.558Z,13.31
2023-04-07T16:39:48.391Z,13.33
2023-04-07T16:42:16.156Z,16.02
2023-04-07T16:44:43.945Z,15.70
2023-04-07T16:47:13.076Z,16.60
2023-04-07T16:49:41.079Z,17.25
2023-04-07T16:52:10.017Z,17.28
2023-04-07T16:54:38.148Z,17.73
2023-04-07T16:57:06.101Z,16.87
2023-04-07T16:59:34.565Z,17.74
2023-04-07T17:02:08.214Z,18.49
2023-04-07T17:04:37.873Z,20.36
2023-04-07T17:07:06.349Z,20.28
2023-04-07T17:09:34.988Z,20.68
2023-04-07T17:12:03.974Z,20.66
2023-04-07T17:14:31.892Z,20.65
2023-04-07T17:16:59.806Z,19.64
2023-04-07T17:19:28.061Z,19.41
2023-04-07T17:21:57.562Z,21.58
2023-04-07T17:24:25.325Z,21.52
2023-04-07T17:26:53.386Z,20.70
2023-04-07T17:29:26.078Z,20.66
2023-04-07T17:31:53.882Z,20.51
2023-04-07T17:34:21.739Z,20.18
2023-04-07T17:36:49.556Z,21.62
2023-04-07T17:39:19.275Z,21.01
2023-04-07T17:41:47.817Z,21.58
2023-04-07T17:44:16.102Z,22.39
2023-04-07T17:46:44.096Z,23.35
2023-04-07T17:49:12.416Z,24.20
2023-04-07T17:51:40.273Z,25.13
2023-04-07T17:54:08.081Z,25.19
2023-04-07T17:56:37.996Z,25.33
2023-04-07T17:59:09.046Z,25.49
2023-04-07T18:01:37.445Z,25.02
2023-04-07T18:04:06.680Z,25.53
2023-04-07T18:06:35.147Z,26.18
2023-04-07T18:09:04.767Z,26.30
2023-04-07T18:11:33.851Z,26.95
2023-04-07T18:14:02.969Z,26.54
2023-04-07T18:16:30.925Z,26.56
2023-04-07T18:19:00.418Z,26.77
2023-04-07T18:21:29.429Z,27.15
2023-04-07T18:23:57.325Z,27.39
2023-04-07T18:26:25.391Z,27.09
2023-04-07T18:28:53.420Z,27.20
2023-04-07T18:31:22.718Z,27.52
2023-04-07T18:33:51.016Z,27.92
2023-04-07T18:36:19.085Z,27.41
2023-04-07T18:38:47.189Z,27.98
2023-04-07T18:41:16.115Z,28.23
2023-04-07T18:43:47.276Z,28.30
2023-04-07T18:46:15.577Z,27.89
2023-04-07T18:48:44.788Z,28.81
2023-04-07T18:51:12.919Z,27.84
2023-04-07T18:53:40.801Z,28.02
2023-04-07T18:56:08.729Z,27.77
2023-04-07T18:58:43.665Z,28.01
2023-04-07T19:01:12.222Z,28.05
2023-04-07T19:03:42.061Z,28.28
2023-04-07T19:06:14.772Z,27.77
2023-04-07T19:08:43.605Z,27.91
2023-04-07T19:11:11.754Z,28.48
2023-04-07T19:13:40.459Z,27.35
2023-04-07T19:16:08.728Z,28.37
2023-04-07T19:18:36.697Z,28.46
2023-04-07T19:21:05.101Z,27.55
2023-04-07T19:23:35.400Z,29.46
2023-04-07T19:26:03.412Z,30.31
2023-04-07T19:28:33.726Z,30.12
2023-04-07T19:31:02.660Z,30.77
2023-04-07T19:33:30.669Z,30.66
2023-04-07T19:35:58.766Z,31.25
2023-04-07T19:38:26.632Z,31.08
2023-04-07T19:40:56.102Z,31.67
2023-04-07T19:43:23.863Z,31.26
2023-04-07T19:45:51.761Z,31.52
2023-04-07T19:48:20.210Z,32.36
2023-04-07T19:50:49.608Z,32.00
2023-04-07T19:53:18.008Z,33.05
2023-04-07T19:55:47.013Z,33.27
2023-04-07T19:58:18.755Z,32.40
2023-04-07T20:00:49.662Z,33.12
2023-04-07T20:05:45.357Z,34.87
2023-04-07T20:08:16.280Z,35.53
2023-04-07T20:10:44.189Z,35.76
2023-04-07T20:13:12.024Z,36.16
2023-04-07T20:15:41.128Z,34.08
2023-04-07T20:18:09.029Z,33.20
2023-04-07T20:20:37.634Z,33.63
2023-04-07T20:23:05.542Z,34.56
2023-04-07T20:25:35.564Z,35.21
2023-04-07T20:28:03.310Z,35.99
2023-04-07T20:30:31.305Z,36.24
2023-04-07T20:33:00.563Z,37.27
2023-04-07T20:35:28.405Z,39.22
2023-04-07T20:37:56.322Z,38.04
2023-04-07T20:40:24.180Z,38.03
2023-04-07T20:42:52.652Z,37.33
2023-04-07T20:45:22.191Z,39.28
2023-04-07T20:47:50.499Z,38.20
2023-04-07T20:50:19.989Z,37.67
2023-04-07T20:52:47.940Z,39.10
2023-04-07T20:55:16.263Z,40.27
2023-04-07T20:57:44.469Z,39.06
2023-04-07T21:00:13.201Z,38.83
2023-04-07T21:02:41.791Z,40.15
2023-04-07T21:05:10.892Z,39.67
2023-04-07T21:07:40.141Z,40.28
2023-04-07T21:10:09.706Z,39.47
2023-04-07T21:12:37.693Z,39.13
2023-04-07T21:15:06.620Z,40.47
2023-04-07T21:17:34.726Z,40.28
2023-04-07T21:20:04.094Z,41.12
2023-04-07T21:22:32.127Z,39.79
2023-04-07T21:25:01.371Z,38.95
2023-04-07T21:27:30.280Z,37.90
2023-04-07T21:29:58.066Z,37.53
2023-04-07T21:32:26.663Z,38.23
2023-04-07T21:34:54.725Z,37.58
2023-04-07T21:37:23.495Z,38.43
2023-04-07T21:39:53.919Z,38.12
2023-04-07T21:42:23.177Z,38.90
2023-04-07T21:44:51.109Z,39.41
2023-04-07T21:47:18.989Z,37.53
2023-04-07T21:49:47.172Z,38.07
2023-04-07T21:52:17.269Z,38.70
2023-04-07T21:54:45.644Z,37.87
2023-04-07T21:57:13.617Z,37.18
2023-04-07T21:59:42.902Z,37.53
2023-04-07T22:02:10.916Z,37.40
2023-04-07T22:04:38.797Z,37.83
2023-04-07T22:07:08.194Z,39.10
2023-04-07T22:09:36.912Z,38.44
2023-04-07T22:12:04.794Z,37.56
2023-04-07T22:14:32.591Z,36.15
2023-04-07T22:17:01.781Z,37.25
2023-04-07T22:19:29.657Z,38.84
2023-04-07T22:21:57.512Z,37.46
2023-04-07T22:24:25.394Z,37.98
2023-04-07T22:26:53.870Z,38.78
2023-04-07T22:29:21.705Z,38.49
2023-04-07T22:31:49.629Z,40.17
2023-04-07T22:34:19.075Z,38.68
2023-04-07T22:36:46.995Z,38.39
2023-04-07T22:39:14.858Z,37.89
2023-04-07T22:41:42.763Z,38.33
2023-04-07T22:44:10.569Z,37.09
2023-04-07T22:46:38.455Z,38.46
2023-04-07T22:49:06.499Z,38.64
2023-04-07T22:51:35.963Z,39.22
2023-04-07T22:54:04.003Z,40.01
2023-04-07T22:56:32.391Z,39.95
2023-04-07T22:59:05.299Z,38.71
2023-04-07T23:01:33.733Z,36.58
2023-04-07T23:04:01.578Z,36.20
2023-04-07T23:06:29.516Z,37.35
2023-04-07T23:08:58.791Z,37.51
2023-04-07T23:11:26.632Z,37.61
2023-04-07T23:13:54.412Z,37.66
2023-04-07T23:16:22.198Z,37.96
2023-04-07T23:18:50.380Z,38.91
2023-04-07T23:21:18.245Z,39.06
2023-04-07T23:23:45.992Z,39.29
2023-04-07T23:26:15.444Z,38.47
2023-04-07T23:28:43.322Z,39.65
2023-04-07T23:31:11.028Z,38.41
2023-04-07T23:33:38.746Z,38.33
2023-04-07T23:36:07.140Z,37.32
2023-04-07T23:38:36.317Z,38.45
2023-04-07T23:41:04.394Z,40.07
2023-04-07T23:43:34.117Z,38.47
2023-04-07T23:46:02.821Z,38.54
2023-04-07T23:48:34.206Z,39.27
2023-04-07T23:51:02.147Z,40.33
2023-04-07T23:53:29.888Z,39.51
2023-04-07T23:55:57.962Z,39.57
2023-04-07T23:58:25.808Z,39.89
